createdAt,value
2023-03-11T00:00:20.154Z,67.31
2023-03-11T00:02:50.839Z,66.03
2023-03-11T00:05:20.815Z,66.50
2023-03-11T00:07:49.357Z,65.87
2023-03-11T00:10:18.551Z,64.98
2023-03-11T00:12:47.068Z,64.96
2023-03-11T00:15:15.690Z,64.95
2023-03-11T00:17:44.242Z,64.48
2023-03-11T00:20:19.854Z,64.67
2023-03-11T00:22:48.675Z,64.08
2023-03-11T00:25:17.105Z,63.71
2023-03-11T00:27:45.593Z,64.20
2023-03-11T00:30:15.751Z,64.18
2023-03-11T00:32:44.534Z,63.55
2023-03-11T00:35:14.822Z,63.46
2023-03-11T00:37:46.092Z,63.32
2023-03-11T00:40:15.078Z,63.19
2023-03-11T00:42:43.533Z,62.96
2023-03-11T00:45:12.592Z,62.47
2023-03-11T00:47:41.293Z,62.13
2023-03-11T00:50:15.390Z,62.28
2023-03-11T00:52:45.549Z,62.24
2023-03-11T00:55:14.828Z,62.55
2023-03-11T00:57:43.387Z,62.51
2023-03-11T01:00:15.229Z,61.78
2023-03-11T01:02:43.761Z,61.46
2023-03-11T01:05:12.177Z,61.25
2023-03-11T01:07:41.865Z,61.66
2023-03-11T01:10:13.189Z,60.56
2023-03-11T01:12:42.158Z,60.62
2023-03-11T01:15:12.239Z,60.42
2023-03-11T01:17:40.872Z,60.55
2023-03-11T01:20:10.557Z,59.61
2023-03-11T01:22:39.042Z,59.35
2023-03-11T01:25:08.386Z,59.99
2023-03-11T01:27:38.236Z,60.11
2023-03-11T01:30:07.297Z,59.95
2023-03-11T01:32:35.807Z,59.29
2023-03-11T01:35:04.359Z,59.86
2023-03-11T01:37:32.676Z,59.38
2023-03-11T01:40:01.826Z,58.75
2023-03-11T01:42:30.248Z,58.78
2023-03-11T01:45:00.114Z,59.37
2023-03-11T01:47:34.836Z,59.60
2023-03-11T01:50:03.605Z,60.21
2023-03-11T01:52:32.010Z,60.74
2023-03-11T01:55:00.517Z,60.64
2023-03-11T01:57:29.157Z,60.71
2023-03-11T01:59:59.935Z,61.35
2023-03-11T02:02:33.721Z,61.15
2023-03-11T02:05:04.193Z,61.13
2023-03-11T02:07:32.743Z,61.88
2023-03-11T02:10:03.520Z,61.62
2023-03-11T02:12:35.623Z,61.54
2023-03-11T02:15:07.180Z,60.84
2023-03-11T02:17:39.601Z,60.58
2023-03-11T02:20:18.221Z,59.79
2023-03-11T02:22:46.974Z,59.41
2023-03-11T02:25:21.096Z,59.55
2023-03-11T02:27:53.364Z,59.17
2023-03-11T02:30:25.877Z,59.07
2023-03-11T02:32:54.783Z,59.44
2023-03-11T02:35:23.794Z,58.85
2023-03-11T02:37:55.205Z,58.63
2023-03-11T02:40:35.268Z,58.20
2023-03-11T02:43:07.304Z,57.77
2023-03-11T02:45:37.230Z,56.85
2023-03-11T02:48:05.988Z,57.84
2023-03-11T02:50:37.617Z,57.33
2023-03-11T02:53:06.948Z,57.73
2023-03-11T02:55:35.449Z,58.51
2023-03-11T02:58:05.346Z,58.19
2023-03-11T03:00:34.970Z,58.18
2023-03-11T03:03:08.359Z,58.21
2023-03-11T03:05:38.377Z,58.83
2023-03-11T03:08:07.047Z,58.47
2023-03-11T03:10:35.489Z,58.21
2023-03-11T03:13:06.407Z,58.56
2023-03-11T03:15:35.327Z,58.51
2023-03-11T03:18:03.769Z,59.38
2023-03-11T03:20:32.385Z,60.09
2023-03-11T03:23:03.386Z,60.12
2023-03-11T03:25:33.767Z,60.59
2023-03-11T03:28:07.886Z,59.64
2023-03-11T03:30:39.755Z,59.45
2023-03-11T03:33:08.753Z,59.71
2023-03-11T03:35:37.537Z,60.01
2023-03-11T03:38:11.095Z,59.75
2023-03-11T03:40:40.676Z,60.22
2023-03-11T03:43:11.418Z,59.69
2023-03-11T03:45:42.007Z,59.42
2023-03-11T03:48:10.612Z,58.39
2023-03-11T03:50:43.769Z,57.55
2023-03-11T03:53:15.942Z,57.25
2023-03-11T03:55:45.184Z,57.63
2023-03-11T03:58:15.399Z,57.31
2023-03-11T04:00:45.472Z,57.11
2023-03-11T04:03:14.442Z,57.24
2023-03-11T04:05:52.309Z,58.10
2023-03-11T04:08:21.815Z,60.04
2023-03-11T04:10:57.792Z,61.78
2023-03-11T04:13:28.933Z,63.75
2023-03-11T04:15:57.588Z,64.48
2023-03-11T04:18:26.097Z,64.72
2023-03-11T04:20:56.877Z,63.70
2023-03-11T04:23:26.127Z,62.03
2023-03-11T04:25:56.014Z,60.38
2023-03-11T04:28:24.789Z,60.40
2023-03-11T04:30:55.250Z,60.15
2023-03-11T04:33:24.240Z,60.27
2023-03-11T04:35:53.001Z,59.73
2023-03-11T04:38:21.559Z,59.28
2023-03-11T04:40:50.120Z,59.32
2023-03-11T04:43:19.288Z,59.42
2023-03-11T04:45:51.754Z,59.70
2023-03-11T04:48:22.050Z,60.04
2023-03-11T04:50:51.312Z,60.34
2023-03-11T04:53:19.679Z,60.34
2023-03-11T04:55:48.641Z,60.91
2023-03-11T04:58:17.285Z,61.15
2023-03-11T05:00:48.296Z,61.56
2023-03-11T05:03:17.821Z,61.65
2023-03-11T05:05:48.072Z,61.54
2023-03-11T05:08:20.324Z,61.64
2023-03-11T05:10:48.921Z,61.85
2023-03-11T05:13:17.327Z,62.21
2023-03-11T05:15:46.332Z,62.18
2023-03-11T05:18:15.013Z,62.26
2023-03-11T05:20:43.717Z,62.42
2023-03-11T05:23:15.264Z,62.34
2023-03-11T05:25:44.318Z,62.50
2023-03-11T05:28:13.759Z,62.52
2023-03-11T05:30:49.470Z,62.07
2023-03-11T05:33:18.756Z,62.58
2023-03-11T05:35:48.439Z,62.60
2023-03-11T05:38:19.112Z,63.72
2023-03-11T05:40:47.702Z,65.03
2023-03-11T05:43:16.187Z,66.45
2023-03-11T05:45:49.975Z,67.33
2023-03-11T05:48:18.610Z,68.10
2023-03-11T05:50:47.311Z,68.71
2023-03-11T05:53:16.397Z,68.73
2023-03-11T05:55:46.225Z,69.45
2023-03-11T05:58:14.706Z,69.59
2023-03-11T06:00:43.108Z,69.63
2023-03-11T06:03:11.987Z,69.21
2023-03-11T06:05:45.659Z,69.27
2023-03-11T06:08:14.630Z,69.25
2023-03-11T06:10:43.502Z,68.52
2023-03-11T06:13:14.119Z,68.82
2023-03-11T06:15:49.719Z,69.30
2023-03-11T06:18:18.777Z,70.25
2023-03-11T06:20:47.408Z,70.25
2023-03-11T06:23:15.877Z,70.66
2023-03-11T06:25:44.288Z,71.32
2023-03-11T06:28:14.598Z,71.60
2023-03-11T06:30:46.088Z,71.72
2023-03-11T06:33:17.128Z,71.58
2023-03-11T06:35:45.828Z,71.45
2023-03-11T06:38:14.284Z,70.82
2023-03-11T06:40:42.819Z,70.95
2023-03-11T06:43:11.270Z,70.50
2023-03-11T06:45:44.061Z,70.90
2023-03-11T06:48:13.010Z,71.07
2023-03-11T06:50:41.826Z,71.65
2023-03-11T06:53:11.355Z,72.00
2023-03-11T06:55:40.068Z,72.50
2023-03-11T06:58:08.751Z,73.95
2023-03-11T07:00:38.386Z,74.51
2023-03-11T07:03:08.309Z,74.88
2023-03-11T07:05:37.179Z,74.39
2023-03-11T07:08:09.727Z,74.71
2023-03-11T07:10:38.310Z,74.90
2023-03-11T07:13:06.727Z,74.77
2023-03-11T07:15:36.450Z,74.84
2023-03-11T07:18:04.888Z,74.87
2023-03-11T07:20:37.805Z,75.05
2023-03-11T07:23:07.672Z,74.91
2023-03-11T07:25:36.122Z,75.20
2023-03-11T07:28:04.553Z,74.69
2023-03-11T07:30:34.681Z,74.47
2023-03-11T07:33:03.036Z,74.15
2023-03-11T07:35:31.674Z,73.86
2023-03-11T07:38:01.940Z,73.98
2023-03-11T07:40:30.657Z,73.72
2023-03-11T07:42:59.540Z,73.48
2023-03-11T07:45:28.132Z,72.95
2023-03-11T07:47:56.591Z,72.73
2023-03-11T07:50:25.089Z,72.38
2023-03-11T07:52:53.496Z,72.24
2023-03-11T07:55:23.288Z,71.86
2023-03-11T07:57:52.329Z,72.87
2023-03-11T08:00:21.266Z,72.84
2023-03-11T08:02:49.601Z,72.98
2023-03-11T08:05:18.759Z,73.37
2023-03-11T08:07:47.138Z,73.69
2023-03-11T08:10:15.642Z,74.07
2023-03-11T08:12:45.583Z,74.56
2023-03-11T08:15:14.011Z,75.26
2023-03-11T08:17:42.358Z,75.10
2023-03-11T08:20:12.659Z,75.84
2023-03-11T08:22:55.655Z,75.64
2023-03-11T08:25:26.100Z,75.95
2023-03-11T08:27:55.910Z,76.37
2023-03-11T08:30:24.914Z,76.96
2023-03-11T08:32:53.478Z,76.47
2023-03-11T08:35:22.078Z,77.45
2023-03-11T08:37:50.590Z,77.20
2023-03-11T08:40:19.219Z,77.94
2023-03-11T08:42:47.512Z,78.01
2023-03-11T08:45:17.459Z,79.00
2023-03-11T08:47:46.141Z,78.85
2023-03-11T08:50:15.643Z,79.14
2023-03-11T08:52:44.145Z,78.79
2023-03-11T08:55:14.521Z,79.46
2023-03-11T08:57:42.946Z,79.46
2023-03-11T09:00:14.063Z,79.66
2023-03-11T09:02:44.309Z,79.55
2023-03-11T09:05:12.821Z,79.81
2023-03-11T09:07:41.357Z,79.89
2023-03-11T09:10:10.541Z,79.39
2023-03-11T09:12:38.805Z,79.41
2023-03-11T09:15:07.650Z,79.26
2023-03-11T09:17:36.101Z,79.18
2023-03-11T09:20:06.473Z,79.45
2023-03-11T09:22:34.802Z,79.65
2023-03-11T09:25:03.204Z,79.55
2023-03-11T09:27:31.512Z,79.34
2023-03-11T09:30:00.108Z,79.53
2023-03-11T09:32:28.686Z,78.95
2023-03-11T09:34:57.979Z,79.54
2023-03-11T09:37:30.398Z,78.94
2023-03-11T09:39:58.852Z,79.08
2023-03-11T09:42:31.264Z,78.20
2023-03-11T09:45:04.025Z,78.38
2023-03-11T09:47:38.587Z,78.50
2023-03-11T09:50:18.390Z,78.08
2023-03-11T09:52:54.027Z,78.18
2023-03-11T09:55:33.287Z,78.28
2023-03-11T09:58:04.130Z,77.93
2023-03-11T10:00:33.529Z,77.72
2023-03-11T10:03:03.363Z,77.54
2023-03-11T10:05:32.978Z,77.10
2023-03-11T10:08:04.954Z,76.54
2023-03-11T10:10:41.197Z,76.13
2023-03-11T10:13:13.556Z,76.28
2023-03-11T10:15:49.608Z,74.99
2023-03-11T10:18:38.891Z,74.65
2023-03-11T10:21:12.029Z,74.47
2023-03-11T10:23:51.835Z,74.31
2023-03-11T10:26:22.363Z,73.68
2023-03-11T10:28:53.566Z,73.52
2023-03-11T10:31:28.978Z,73.18
2023-03-11T10:33:59.401Z,72.78
2023-03-11T10:36:31.972Z,72.50
2023-03-11T10:39:02.439Z,71.93
2023-03-11T10:41:33.653Z,71.52
2023-03-11T10:44:05.369Z,71.67
2023-03-11T10:46:33.748Z,70.90
2023-03-11T10:49:02.576Z,71.17
2023-03-11T10:51:35.507Z,70.93
2023-03-11T10:54:06.153Z,70.66
2023-03-11T10:56:35.441Z,70.61
2023-03-11T10:59:04.580Z,70.75
2023-03-11T11:01:33.156Z,70.24
2023-03-11T11:04:02.885Z,70.29
2023-03-11T11:06:33.030Z,70.23
2023-03-11T11:09:15.645Z,69.91
2023-03-11T11:11:44.606Z,69.38
2023-03-11T11:14:12.955Z,68.76
2023-03-11T11:16:42.150Z,68.41
2023-03-11T11:19:12.193Z,68.29
2023-03-11T11:21:41.269Z,67.35
2023-03-11T11:24:20.706Z,67.36
2023-03-11T11:26:59.882Z,67.46
2023-03-11T11:29:28.224Z,67.24
2023-03-11T11:32:12.533Z,66.76
2023-03-11T11:34:41.550Z,67.02
2023-03-11T11:37:13.242Z,66.67
2023-03-11T11:39:51.923Z,66.83
2023-03-11T11:42:21.973Z,66.78
2023-03-11T11:44:52.581Z,66.79
2023-03-11T11:47:23.285Z,66.55
2023-03-11T11:49:54.585Z,67.08
2023-03-11T11:52:26.015Z,67.41
2023-03-11T11:54:59.407Z,67.13
2023-03-11T11:57:28.063Z,67.26
2023-03-11T11:59:57.657Z,67.37
2023-03-11T12:02:38.615Z,67.56
2023-03-11T12:05:11.227Z,67.82
2023-03-11T12:07:49.699Z,67.74
2023-03-11T12:10:24.369Z,67.75
2023-03-11T12:13:06.157Z,67.83
2023-03-11T12:15:39.607Z,68.22
2023-03-11T12:18:12.338Z,68.38
2023-03-11T12:20:44.188Z,68.46
2023-03-11T12:23:18.759Z,68.73
2023-03-11T12:25:57.770Z,68.62
2023-03-11T12:28:31.387Z,68.76
2023-03-11T12:31:01.834Z,68.58
2023-03-11T12:33:33.409Z,68.83
2023-03-11T12:36:02.064Z,68.78
2023-03-11T12:38:34.257Z,68.31
2023-03-11T12:41:06.074Z,68.33
2023-03-11T12:43:46.654Z,68.46
2023-03-11T12:46:17.730Z,68.54
2023-03-11T12:48:46.860Z,68.37
2023-03-11T12:51:37.980Z,68.45
2023-03-11T12:54:21.183Z,68.41
2023-03-11T12:56:56.295Z,68.62
2023-03-11T12:59:43.436Z,68.48
2023-03-11T13:02:24.580Z,68.64
2023-03-11T13:04:58.135Z,68.33
2023-03-11T13:07:41.792Z,68.27
2023-03-11T13:10:16.174Z,68.43
2023-03-11T13:12:46.679Z,68.39
2023-03-11T13:15:32.861Z,68.16
2023-03-11T13:18:02.452Z,68.52
2023-03-11T13:20:42.210Z,68.44
2023-03-11T13:23:21.491Z,68.56
2023-03-11T13:26:05.327Z,68.64
2023-03-11T13:28:44.341Z,68.08
2023-03-11T13:31:25.765Z,68.17
2023-03-11T13:33:55.738Z,67.86
2023-03-11T13:36:35.884Z,67.62
2023-03-11T13:39:21.938Z,67.45
2023-03-11T13:41:50.433Z,68.11
2023-03-11T13:44:26.570Z,67.28
2023-03-11T13:46:57.118Z,67.00
2023-03-11T13:49:29.869Z,66.97
2023-03-11T13:51:59.723Z,66.47
2023-03-11T13:54:33.153Z,66.33
2023-03-11T13:57:02.638Z,65.94
2023-03-11T13:59:33.185Z,65.74
2023-03-11T14:02:03.162Z,65.65
2023-03-11T14:04:32.762Z,65.19
2023-03-11T14:07:01.523Z,64.55
2023-03-11T14:09:29.967Z,64.65
2023-03-11T14:12:07.916Z,63.96
2023-03-11T14:14:43.122Z,64.39
2023-03-11T14:17:15.094Z,64.00
2023-03-11T14:19:44.098Z,64.10
2023-03-11T14:22:12.440Z,63.54
2023-03-11T14:24:41.029Z,63.16
2023-03-11T14:27:11.036Z,62.27
2023-03-11T14:29:42.720Z,61.85
2023-03-11T14:32:18.249Z,61.21
2023-03-11T14:34:46.882Z,61.18
2023-03-11T14:37:25.610Z,60.95
2023-03-11T14:39:54.618Z,60.96
2023-03-11T14:42:26.574Z,60.28
2023-03-11T14:44:59.471Z,60.07
2023-03-11T14:47:33.468Z,59.22
2023-03-11T14:50:02.351Z,58.30
2023-03-11T14:52:34.706Z,58.14
2023-03-11T14:55:03.883Z,58.29
2023-03-11T14:57:36.422Z,58.09
2023-03-11T15:00:10.443Z,58.26
2023-03-11T15:02:45.002Z,58.27
2023-03-11T15:05:19.166Z,58.35
2023-03-11T15:07:48.864Z,58.27
2023-03-11T15:10:17.186Z,57.97
2023-03-11T15:12:46.810Z,58.01
2023-03-11T15:15:25.992Z,58.64
2023-03-11T15:17:58.137Z,58.17
2023-03-11T15:20:28.124Z,57.86
2023-03-11T15:23:01.415Z,57.39
2023-03-11T15:25:31.858Z,56.88
2023-03-11T15:28:00.240Z,56.65
2023-03-11T15:30:30.560Z,56.29
2023-03-11T15:33:00.653Z,56.22
2023-03-11T15:35:29.910Z,56.18
2023-03-11T15:38:09.513Z,55.74
2023-03-11T15:40:45.414Z,55.91
2023-03-11T15:43:21.420Z,56.06
2023-03-11T15:45:50.267Z,56.24
2023-03-11T15:48:20.090Z,56.19
2023-03-11T15:50:53.810Z,56.27
2023-03-11T15:53:23.666Z,55.98
2023-03-11T15:55:52.300Z,55.85
2023-03-11T15:58:21.859Z,56.30
2023-03-11T16:00:51.060Z,56.35
2023-03-11T16:03:21.057Z,56.22
2023-03-11T16:05:49.723Z,56.07
2023-03-11T16:08:18.462Z,55.95
2023-03-11T16:10:47.237Z,55.83
2023-03-11T16:13:16.567Z,55.70
2023-03-11T16:15:47.315Z,55.69
2023-03-11T16:18:16.057Z,55.85
2023-03-11T16:20:48.068Z,56.31
2023-03-11T16:23:19.369Z,55.99
2023-03-11T16:25:48.063Z,56.42
2023-03-11T16:28:17.755Z,56.44
2023-03-11T16:30:47.204Z,56.53
2023-03-11T16:33:15.994Z,56.13
2023-03-11T16:35:45.950Z,56.05
2023-03-11T16:38:14.501Z,56.02
2023-03-11T16:40:42.926Z,56.07
2023-03-11T16:43:12.830Z,56.69
2023-03-11T16:45:41.281Z,56.29
2023-03-11T16:48:09.717Z,56.42
2023-03-11T16:50:38.134Z,56.26
2023-03-11T16:53:08.022Z,56.67
2023-03-11T16:55:36.823Z,56.05
2023-03-11T16:58:05.318Z,56.30
2023-03-11T17:00:33.720Z,56.75
2023-03-11T17:03:02.220Z,56.48
2023-03-11T17:05:30.737Z,56.69
2023-03-11T17:08:04.723Z,56.54
2023-03-11T17:10:38.907Z,56.38
2023-03-11T17:13:07.962Z,56.59
2023-03-11T17:15:38.186Z,56.51
2023-03-11T17:18:06.729Z,57.14
2023-03-11T17:20:35.183Z,56.96
2023-03-11T17:23:04.022Z,57.18
2023-03-11T17:25:32.456Z,57.67
2023-03-11T17:28:02.447Z,57.92
2023-03-11T17:30:37.056Z,58.25
2023-03-11T17:33:06.189Z,58.08
2023-03-11T17:35:34.963Z,58.29
2023-03-11T17:38:03.513Z,58.42
2023-03-11T17:40:33.590Z,58.41
2023-03-11T17:43:03.456Z,58.59
2023-03-11T17:45:32.468Z,58.43
2023-03-11T17:48:00.902Z,58.22
2023-03-11T17:50:29.696Z,58.06
2023-03-11T17:52:58.105Z,58.56
2023-03-11T17:55:26.600Z,58.21
2023-03-11T17:57:54.899Z,58.33
2023-03-11T18:00:25.216Z,58.84
2023-03-11T18:02:53.821Z,58.29
2023-03-11T18:05:22.405Z,59.05
2023-03-11T18:07:50.866Z,59.17
2023-03-11T18:10:19.364Z,59.37
2023-03-11T18:12:48.233Z,59.17
2023-03-11T18:15:19.683Z,59.70
2023-03-11T18:17:50.011Z,59.19
2023-03-11T18:20:18.544Z,59.91
2023-03-11T18:22:47.921Z,60.24
2023-03-11T18:25:16.328Z,60.37
2023-03-11T18:27:44.860Z,61.02
2023-03-11T18:30:14.852Z,61.01
2023-03-11T18:32:45.113Z,61.23
2023-03-11T18:35:17.874Z,61.17
2023-03-11T18:37:46.849Z,61.08
2023-03-11T18:40:15.605Z,61.30
2023-03-11T18:42:44.128Z,61.37
2023-03-11T18:45:14.351Z,61.14
2023-03-11T18:47:43.099Z,61.68
2023-03-11T18:50:12.598Z,61.92
2023-03-11T18:52:42.888Z,61.46
2023-03-11T18:55:11.451Z,61.66
2023-03-11T18:57:41.876Z,61.53
2023-03-11T19:00:12.105Z,62.21
2023-03-11T19:02:40.552Z,62.31
2023-03-11T19:05:09.392Z,61.95
2023-03-11T19:07:37.882Z,62.37
2023-03-11T19:10:08.073Z,62.67
2023-03-11T19:12:37.454Z,62.30
2023-03-11T19:15:06.310Z,62.55
2023-03-11T19:17:34.929Z,62.71
2023-03-11T19:20:03.830Z,62.75
2023-03-11T19:22:32.289Z,62.93
2023-03-11T19:25:00.672Z,63.12
2023-03-11T19:27:31.441Z,62.94
2023-03-11T19:29:59.999Z,62.97
2023-03-11T19:32:28.528Z,63.73
2023-03-11T19:34:57.373Z,63.57
2023-03-11T19:37:26.189Z,63.53
2023-03-11T19:39:54.567Z,63.19
2023-03-11T19:42:24.400Z,63.35
2023-03-11T19:44:56.156Z,63.22
2023-03-11T19:47:24.999Z,62.95
2023-03-11T19:49:53.489Z,63.41
2023-03-11T19:52:23.671Z,63.52
2023-03-11T19:54:52.330Z,63.00
2023-03-11T19:57:20.749Z,63.17
2023-03-11T19:59:49.457Z,63.69
2023-03-11T20:02:19.372Z,63.92
2023-03-11T20:04:48.021Z,63.62
2023-03-11T20:07:16.540Z,63.90
2023-03-11T20:09:45.071Z,63.27
2023-03-11T20:12:13.476Z,63.84
2023-03-11T20:14:42.333Z,64.02
2023-03-11T20:17:10.914Z,63.42
2023-03-11T20:19:40.845Z,63.92
2023-03-11T20:22:09.215Z,63.04
2023-03-11T20:24:37.612Z,63.13
2023-03-11T20:27:06.112Z,63.67
2023-03-11T20:29:34.712Z,63.23
2023-03-11T20:32:04.879Z,63.18
2023-03-11T20:34:33.426Z,63.30
2023-03-11T20:37:03.184Z,63.36
2023-03-11T20:39:32.119Z,64.80
2023-03-11T20:42:00.699Z,66.94
2023-03-11T20:44:29.157Z,68.09
2023-03-11T20:46:57.597Z,69.49
2023-03-11T20:49:26.362Z,68.92
2023-03-11T20:51:54.839Z,69.75
2023-03-11T20:54:24.671Z,69.20
2023-03-11T20:56:53.282Z,69.39
2023-03-11T20:59:21.647Z,69.17
2023-03-11T21:01:50.176Z,69.10
2023-03-11T21:04:18.667Z,69.32
2023-03-11T21:06:49.871Z,69.63
2023-03-11T21:09:18.458Z,70.26
2023-03-11T21:11:48.273Z,69.31
2023-03-11T21:14:17.492Z,69.06
2023-03-11T21:16:46.476Z,69.21
2023-03-11T21:19:15.690Z,68.76
2023-03-11T21:21:44.345Z,68.44
2023-03-11T21:24:12.900Z,68.74
2023-03-11T21:26:41.361Z,68.54
2023-03-11T21:29:11.574Z,67.53
2023-03-11T21:31:40.303Z,67.32
2023-03-11T21:34:11.230Z,67.05
2023-03-11T21:36:39.868Z,66.23
2023-03-11T21:39:08.416Z,65.75
2023-03-11T21:41:36.989Z,65.79
2023-03-11T21:44:05.511Z,66.22
2023-03-11T21:46:35.858Z,66.01
2023-03-11T21:49:04.361Z,65.09
2023-03-11T21:51:32.728Z,65.97
2023-03-11T21:54:02.721Z,65.05
2023-03-11T21:56:31.324Z,65.06
2023-03-11T21:58:59.837Z,65.61
2023-03-11T22:01:28.352Z,65.26
2023-03-11T22:03:58.237Z,64.45
2023-03-11T22:06:27.020Z,64.60
2023-03-11T22:08:55.942Z,64.55
2023-03-11T22:11:24.632Z,65.03
2023-03-11T22:13:54.195Z,64.30
2023-03-11T22:16:23.902Z,64.00
2023-03-11T22:18:52.919Z,64.72
2023-03-11T22:21:22.810Z,64.18
2023-03-11T22:23:51.401Z,64.38
2023-03-11T22:26:19.795Z,64.62
2023-03-11T22:28:48.267Z,64.38
2023-03-11T22:31:19.044Z,64.94
2023-03-11T22:33:48.334Z,65.03
2023-03-11T22:36:16.774Z,65.14
2023-03-11T22:38:46.733Z,66.20
2023-03-11T22:41:17.135Z,65.47
2023-03-11T22:43:45.692Z,65.76
2023-03-11T22:46:14.233Z,65.90
2023-03-11T22:48:43.045Z,66.51
2023-03-11T22:51:11.447Z,65.95
2023-03-11T22:53:39.880Z,66.61
2023-03-11T22:56:11.719Z,66.34
2023-03-11T22:58:41.345Z,66.61
2023-03-11T23:01:10.073Z,66.71
2023-03-11T23:03:39.055Z,67.19
2023-03-11T23:06:09.223Z,67.34
2023-03-11T23:08:37.682Z,66.99
2023-03-11T23:11:07.349Z,67.40
2023-03-11T23:13:37.574Z,67.77
2023-03-11T23:16:07.463Z,67.93
2023-03-11T23:18:36.202Z,67.86
2023-03-11T23:21:04.716Z,67.93
2023-03-11T23:23:33.203Z,67.33
2023-03-11T23:26:01.580Z,67.98
2023-03-11T23:28:30.048Z,67.61
2023-03-11T23:31:04.531Z,68.31
2023-03-11T23:33:33.039Z,68.13
2023-03-11T23:36:01.721Z,68.68
2023-03-11T23:38:30.195Z,68.87
2023-03-11T23:40:58.844Z,69.00
2023-03-11T23:43:27.888Z,68.91
2023-03-11T23:45:56.273Z,68.82
2023-03-11T23:48:26.264Z,68.51
2023-03-11T23:50:54.706Z,68.90
2023-03-11T23:53:23.412Z,69.09
2023-03-11T23:55:51.926Z,69.00
2023-03-11T23:58:20.827Z,68.11
